Terminal Aerodrome Forecast
Issued by NWS

Home | Current Version | Previous Version | Text Only | Print | Product List | Glossary On
Versions: 1 2 3 4 5 6 7 8 9 10 11 12 13 14 15 16 17 18 19 20 21 22 23
000
FTUS43 KGRR 231150
TAFJXN
TAF
KJXN 231150Z 2312/2412 29009KT P6SM OVC008
      TEMPO 2312/2315 5SM -TSRA BR OVC010CB
     FM231500 32008KT P6SM OVC020
     FM231800 29012KT P6SM BKN035
     FM240000 27008KT P6SM SCT050=

USA.gov is the U.S. government's official web portal to all federal, state and local government web resources and services.